createdAt,value
2018-11-21T00:00:21.890Z,90.28
2018-11-21T00:02:50.947Z,88.86
2018-11-21T00:05:20.292Z,87.89
2018-11-21T00:07:49.793Z,87.37
2018-11-21T00:10:18.854Z,88.05
2018-11-21T00:12:54.331Z,88.08
2018-11-21T00:15:23.648Z,88.55
2018-11-21T00:17:53.428Z,88.78
2018-11-21T00:20:22.278Z,89.26
2018-11-21T00:22:50.932Z,89.54
2018-11-21T00:25:19.679Z,88.71
2018-11-21T00:27:48.179Z,89.23
2018-11-21T00:30:18.462Z,89.17
2018-11-21T00:32:46.971Z,88.94
2018-11-21T00:35:16.178Z,88.41
2018-11-21T00:37:44.437Z,88.24
2018-11-21T00:40:14.323Z,88.02
2018-11-21T00:42:46.748Z,87.78
2018-11-21T00:45:11.680Z,88.62
2018-11-21T00:47:40.429Z,87.51
2018-11-21T00:50:08.937Z,87.09
2018-11-21T00:52:37.591Z,87.26
2018-11-21T00:55:06.845Z,87.36
2018-11-21T00:57:35.345Z,87.99
2018-11-21T01:00:03.976Z,87.60
2018-11-21T01:02:32.476Z,87.91
2018-11-21T01:05:00.947Z,87.98
2018-11-21T01:07:29.551Z,87.51
2018-11-21T01:09:58.028Z,87.65
2018-11-21T01:12:26.592Z,87.90
2018-11-21T01:14:55.071Z,87.89
2018-11-21T01:17:23.576Z,87.85
2018-11-21T01:19:52.048Z,88.23
2018-11-21T01:22:20.516Z,88.35
2018-11-21T01:24:49.393Z,87.85
2018-11-21T01:27:17.863Z,87.79
2018-11-21T01:29:46.371Z,88.11
2018-11-21T01:32:14.873Z,87.90
2018-11-21T01:34:43.389Z,88.47
2018-11-21T01:37:11.861Z,87.70
2018-11-21T01:39:40.656Z,88.46
2018-11-21T01:42:09.045Z,88.57
2018-11-21T01:44:37.566Z,89.10
2018-11-21T01:47:06.187Z,89.33
2018-11-21T01:49:34.663Z,88.49
2018-11-21T01:52:03.168Z,88.53
2018-11-21T01:54:31.639Z,89.39
2018-11-21T01:57:00.156Z,88.76
2018-11-21T01:59:28.633Z,89.72
2018-11-21T02:01:57.158Z,89.22
2018-11-21T02:04:25.624Z,88.76
2018-11-21T02:06:54.134Z,88.69
2018-11-21T02:09:22.605Z,88.97
2018-11-21T02:11:51.112Z,89.49
2018-11-21T02:14:19.676Z,89.47
2018-11-21T02:16:48.201Z,89.75
2018-11-21T02:19:16.684Z,90.70
2018-11-21T02:21:45.152Z,90.04
2018-11-21T02:24:13.661Z,90.58
2018-11-21T02:26:42.127Z,90.73
2018-11-21T02:29:10.631Z,90.56
2018-11-21T02:31:39.092Z,90.49
2018-11-21T02:34:07.598Z,90.10
2018-11-21T02:36:36.054Z,91.20
2018-11-21T02:39:08.106Z,91.63
2018-11-21T02:41:36.995Z,91.13
2018-11-21T02:44:05.861Z,91.25
2018-11-21T02:46:34.581Z,91.47
2018-11-21T02:49:03.417Z,90.99
2018-11-21T02:51:31.879Z,90.65
2018-11-21T02:54:00.352Z,91.07
2018-11-21T02:57:06.330Z,90.89
2018-11-21T02:59:34.790Z,91.18
2018-11-21T03:02:03.294Z,92.78
2018-11-21T03:04:31.775Z,91.95
2018-11-21T03:07:00.267Z,92.09
2018-11-21T03:09:28.734Z,92.34
2018-11-21T03:11:57.252Z,92.44
2018-11-21T03:14:25.722Z,92.81
2018-11-21T03:16:54.221Z,92.74
2018-11-21T03:19:22.715Z,91.90
2018-11-21T03:21:51.213Z,92.40
2018-11-21T03:24:19.677Z,92.26
2018-11-21T03:26:48.188Z,92.32
2018-11-21T03:29:16.655Z,92.26
2018-11-21T03:31:45.156Z,92.21
2018-11-21T03:34:13.624Z,92.58
2018-11-21T03:36:48.170Z,92.17
2018-11-21T03:39:17.326Z,92.05
2018-11-21T03:41:46.468Z,92.29
2018-11-21T03:44:14.956Z,91.48
2018-11-21T03:46:44.459Z,91.02
2018-11-21T03:49:12.922Z,91.41
2018-11-21T03:51:41.680Z,91.52
2018-11-21T03:54:10.421Z,91.38
2018-11-21T03:56:39.565Z,91.62
2018-11-21T03:59:08.691Z,92.10
2018-11-21T04:01:37.448Z,91.86
2018-11-21T04:04:06.777Z,91.67
2018-11-21T04:06:35.238Z,91.17
2018-11-21T04:09:05.073Z,91.55
2018-11-21T04:11:33.539Z,91.65
2018-11-21T04:14:02.069Z,92.09
2018-11-21T04:16:30.528Z,91.61
2018-11-21T04:18:59.014Z,91.62
2018-11-21T04:21:27.590Z,91.40
2018-11-21T04:23:56.100Z,91.72
2018-11-21T04:26:24.600Z,91.51
2018-11-21T04:28:53.104Z,91.38
2018-11-21T04:31:21.560Z,91.51
2018-11-21T04:33:50.039Z,91.64
2018-11-21T04:36:18.534Z,91.54
2018-11-21T04:39:00.679Z,91.35
2018-11-21T04:41:29.164Z,91.43
2018-11-21T04:43:57.631Z,91.09
2018-11-21T04:46:26.146Z,91.26
2018-11-21T04:48:54.607Z,91.08
2018-11-21T04:51:23.074Z,91.36
2018-11-21T04:53:51.572Z,91.42
2018-11-21T04:56:20.035Z,91.73
2018-11-21T04:58:48.542Z,91.25
2018-11-21T05:01:17.041Z,91.37
2018-11-21T05:03:45.534Z,91.34
2018-11-21T05:06:13.996Z,91.30
2018-11-21T05:08:42.493Z,92.00
2018-11-21T05:11:11.205Z,91.40
2018-11-21T05:13:39.717Z,91.06
2018-11-21T05:16:08.205Z,91.22
2018-11-21T05:18:36.709Z,91.20
2018-11-21T05:21:05.287Z,91.77
2018-11-21T05:23:33.882Z,91.86
2018-11-21T05:26:02.343Z,91.35
2018-11-21T05:28:30.836Z,90.94
2018-11-21T05:30:59.301Z,90.96
2018-11-21T05:33:28.079Z,90.77
2018-11-21T05:35:56.538Z,91.20
2018-11-21T05:38:25.059Z,90.95
2018-11-21T05:40:53.517Z,90.53
2018-11-21T05:43:22.022Z,90.54
2018-11-21T05:45:50.480Z,90.81
2018-11-21T05:48:18.986Z,91.20
2018-11-21T05:50:47.454Z,91.34
2018-11-21T05:53:15.956Z,91.59
2018-11-21T05:55:44.417Z,91.27
2018-11-21T05:58:12.922Z,91.56
2018-11-21T06:00:49.135Z,91.14
2018-11-21T06:03:13.692Z,91.03
2018-11-21T06:05:42.155Z,90.65
2018-11-21T06:08:10.684Z,90.59
2018-11-21T06:10:39.150Z,90.15
2018-11-21T06:13:07.686Z,90.46
2018-11-21T06:15:36.150Z,90.54
2018-11-21T06:18:05.003Z,90.74
2018-11-21T06:20:33.500Z,90.04
2018-11-21T06:23:01.966Z,90.38
2018-11-21T06:25:30.662Z,89.94
2018-11-21T06:27:59.138Z,90.21
2018-11-21T06:30:27.642Z,89.31
2018-11-21T06:32:56.116Z,89.27
2018-11-21T06:35:24.759Z,89.99
2018-11-21T06:37:53.229Z,89.97
2018-11-21T06:40:21.721Z,89.56
2018-11-21T06:42:54.315Z,89.38
2018-11-21T06:45:24.162Z,88.75
2018-11-21T06:47:52.630Z,89.01
2018-11-21T06:50:21.330Z,89.39
2018-11-21T06:52:50.078Z,89.14
2018-11-21T06:55:18.589Z,89.13
2018-11-21T06:57:47.095Z,89.06
2018-11-21T07:00:15.606Z,89.17
2018-11-21T07:02:44.105Z,89.34
2018-11-21T07:05:12.751Z,89.43
2018-11-21T07:07:41.211Z,89.40
2018-11-21T07:10:12.149Z,88.61
2018-11-21T07:12:40.671Z,88.77
2018-11-21T07:15:09.488Z,88.93
2018-11-21T07:17:38.308Z,89.20
2018-11-21T07:20:09.017Z,88.57
2018-11-21T07:22:39.811Z,88.91
2018-11-21T07:25:35.148Z,88.31
2018-11-21T07:28:03.675Z,88.43
2018-11-21T07:30:32.161Z,88.64
2018-11-21T07:33:00.625Z,88.64
2018-11-21T07:35:29.126Z,88.78
2018-11-21T07:37:57.600Z,88.65
2018-11-21T07:40:26.113Z,88.14
2018-11-21T07:42:54.583Z,88.68
2018-11-21T07:45:23.755Z,88.59
2018-11-21T07:47:51.572Z,88.60
2018-11-21T07:50:21.227Z,88.38
2018-11-21T07:52:49.713Z,88.02
2018-11-21T07:55:18.328Z,88.19
2018-11-21T07:57:48.756Z,88.25
2018-11-21T08:00:54.147Z,88.85
2018-11-21T08:03:23.667Z,88.91
2018-11-21T08:05:54.845Z,88.82
2018-11-21T08:08:48.351Z,89.16
2018-11-21T08:11:34.526Z,89.30
2018-11-21T08:14:20.640Z,88.57
2018-11-21T08:17:13.990Z,88.81
2018-11-21T08:20:16.898Z,88.89
2018-11-21T08:23:08.136Z,88.89
2018-11-21T08:25:58.515Z,87.77
2018-11-21T08:28:30.911Z,87.49
2018-11-21T08:30:59.412Z,87.03
2018-11-21T08:33:33.852Z,87.24
2018-11-21T08:35:57.125Z,87.12
2018-11-21T08:38:25.594Z,86.62
2018-11-21T08:40:54.220Z,86.27
2018-11-21T08:43:22.702Z,86.32
2018-11-21T08:45:51.273Z,86.66
2018-11-21T08:48:20.565Z,86.03
2018-11-21T08:50:49.069Z,85.71
2018-11-21T08:53:17.576Z,85.07
2018-11-21T08:55:46.051Z,85.03
2018-11-21T08:58:15.000Z,84.99
2018-11-21T09:00:43.521Z,84.99
2018-11-21T09:03:14.254Z,85.06
2018-11-21T09:05:42.786Z,85.25
2018-11-21T09:08:11.291Z,84.78
2018-11-21T09:10:39.755Z,84.21
2018-11-21T09:13:08.272Z,84.15
2018-11-21T09:15:37.137Z,84.18
2018-11-21T09:18:05.894Z,83.94
2018-11-21T09:20:34.388Z,83.81
2018-11-21T09:23:02.913Z,84.64
2018-11-21T09:25:31.982Z,84.41
2018-11-21T09:28:00.538Z,83.24
2018-11-21T09:30:29.013Z,83.47
2018-11-21T09:32:58.163Z,83.42
2018-11-21T09:35:26.679Z,84.05
2018-11-21T09:37:55.811Z,83.27
2018-11-21T09:40:24.644Z,82.66
2018-11-21T09:42:55.441Z,83.39
2018-11-21T09:45:25.206Z,82.50
2018-11-21T09:47:53.687Z,82.53
2018-11-21T09:50:29.432Z,81.80
2018-11-21T09:53:00.282Z,81.89
2018-11-21T09:55:29.164Z,81.64
2018-11-21T09:57:57.893Z,81.03
2018-11-21T10:01:03.424Z,81.30
2018-11-21T10:03:33.354Z,81.07
2018-11-21T10:06:19.823Z,80.90
2018-11-21T10:08:50.216Z,81.13
2018-11-21T10:11:18.960Z,81.33
2018-11-21T10:13:47.516Z,81.54
2018-11-21T10:16:16.503Z,81.92
2018-11-21T10:18:46.966Z,81.54
2018-11-21T10:21:17.198Z,81.63
2018-11-21T10:23:48.133Z,81.78
2018-11-21T10:26:17.709Z,81.82
2018-11-21T10:28:48.010Z,81.25
2018-11-21T10:31:16.832Z,81.03
2018-11-21T10:33:49.161Z,81.42
2018-11-21T10:36:17.958Z,80.86
2018-11-21T10:38:46.420Z,80.56
2018-11-21T10:41:14.922Z,80.96
2018-11-21T10:43:43.378Z,80.54
2018-11-21T10:46:11.884Z,81.19
2018-11-21T10:48:40.369Z,80.28
2018-11-21T10:51:09.876Z,80.52
2018-11-21T10:53:39.280Z,80.83
2018-11-21T10:56:08.806Z,80.81
2018-11-21T10:58:38.206Z,81.05
2018-11-21T11:01:24.317Z,80.76
2018-11-21T11:04:23.900Z,80.36
2018-11-21T11:07:10.147Z,80.69
2018-11-21T11:09:51.769Z,80.32
2018-11-21T11:12:40.521Z,80.00
2018-11-21T11:15:37.497Z,80.08
2018-11-21T11:18:32.337Z,79.52
2018-11-21T11:21:19.078Z,79.50
2018-11-21T11:27:41.731Z,79.02
2018-11-21T11:30:39.229Z,79.09
2018-11-21T11:33:26.374Z,79.56
2018-11-21T11:36:13.312Z,78.95
2018-11-21T11:38:56.395Z,79.05
2018-11-21T11:41:42.621Z,78.32
2018-11-21T11:44:29.958Z,78.36
2018-11-21T11:47:17.829Z,78.37
2018-11-21T11:49:57.730Z,77.87
2018-11-21T11:52:45.320Z,77.97
2018-11-21T11:55:32.503Z,78.32
2018-11-21T11:58:38.100Z,78.99
2018-11-21T12:01:45.059Z,79.50
2018-11-21T12:04:36.448Z,78.49
2018-11-21T12:07:25.439Z,78.41
2018-11-21T12:10:12.591Z,78.65
2018-11-21T12:13:06.939Z,78.52
2018-11-21T12:16:10.818Z,78.49
2018-11-21T12:19:04.348Z,77.35
2018-11-21T12:21:51.759Z,78.58
